Time;durP1;ratioP1;P1;durP2;ratioP2;P2;SDS_P1;SDS_P2;PMS_P1;PMS_P2;Temp;Humidity;BMP_temperature;BMP_pressure;BME280_temperature;BME280_humidity;BME280_pressure;Samples;Min_cycle;Max_cycle;Signal;HPM_P1;HPM_P2
2022/01/22 00:00:08;;;;;;;5.33;4.57;;;8.40;82.00;;;;;;882907;159;27963;-79
2022/01/22 00:02:35;;;;;;;5.50;5.00;;;8.40;81.90;;;;;;882295;159;27426;-79
2022/01/22 00:05:02;;;;;;;5.30;4.80;;;8.40;81.90;;;;;;882867;159;27458;-78
2022/01/22 00:07:28;;;;;;;9.00;4.90;;;8.40;81.90;;;;;;882794;159;27556;-79
2022/01/22 00:10:00;;;;;;;5.60;5.10;;;8.40;82.00;;;;;;882707;159;27922;-79
2022/01/22 00:12:41;;;;;;;6.00;5.30;;;8.40;82.10;;;;;;882143;159;27476;-79
2022/01/22 00:14:48;;;;;;;8.07;5.53;;;8.40;82.10;;;;;;880006;159;27475;-78
2022/01/22 00:17:15;;;;;;;5.80;5.30;;;8.40;82.10;;;;;;882784;159;27443;-79
2022/01/22 00:19:41;;;;;;;5.67;4.77;;;8.40;82.10;;;;;;882857;159;27447;-79
2022/01/22 00:22:08;;;;;;;6.07;4.67;;;8.40;82.20;;;;;;882917;159;28858;-78
2022/01/22 00:24:38;;;;;;;6.47;5.10;;;8.40;82.10;;;;;;883060;159;27422;-79
2022/01/22 00:27:01;;;;;;;5.23;4.33;;;8.40;82.90;;;;;;881741;159;27435;-79
2022/01/22 00:29:27;;;;;;;5.17;4.67;;;8.40;82.20;;;;;;883360;159;27415;-78
2022/01/22 00:31:54;;;;;;;6.47;5.07;;;8.50;82.20;;;;;;882103;159;27549;-79
2022/01/22 00:34:21;;;;;;;6.03;4.60;;;8.50;82.20;;;;;;882714;159;27442;-79
2022/01/22 00:36:47;;;;;;;5.13;4.63;;;8.50;82.10;;;;;;883238;159;27435;-79
2022/01/22 00:39:14;;;;;;;4.77;4.10;;;8.50;82.10;;;;;;882384;159;27371;-78
2022/01/22 00:41:40;;;;;;;5.13;4.63;;;8.50;82.10;;;;;;883127;159;27541;-79
2022/01/22 00:44:07;;;;;;;5.37;4.67;;;8.50;82.10;;;;;;883701;159;27610;-79
2022/01/22 00:46:36;;;;;;;5.07;4.57;;;8.50;82.80;;;;;;882970;159;27531;-79
2022/01/22 00:49:03;;;;;;;5.50;4.80;;;8.50;82.10;;;;;;882720;159;28018;-79
2022/01/22 00:51:29;;;;;;;5.67;4.93;;;8.50;82.10;;;;;;882157;159;27623;-79
2022/01/22 00:53:57;;;;;;;7.67;4.67;;;8.50;82.10;;;;;;882960;159;27444;-79
2022/01/22 00:56:22;;;;;;;5.67;4.80;;;8.60;82.20;;;;;;882746;159;27478;-79
2022/01/22 00:58:49;;;;;;;5.30;4.80;;;8.60;82.20;;;;;;881111;159;27995;-78
2022/01/22 01:01:16;;;;;;;4.67;4.27;;;8.60;82.20;;;;;;878580;160;28040;-79
2022/01/22 01:03:42;;;;;;;4.90;4.40;;;8.60;82.20;;;;;;879012;160;27349;-79
2022/01/22 01:06:09;;;;;;;4.90;4.40;;;8.60;82.10;;;;;;878171;160;27465;-78
2022/01/22 01:08:36;;;;;;;5.53;4.60;;;8.60;82.10;;;;;;878758;160;27423;-79
2022/01/22 01:11:02;;;;;;;5.00;4.40;;;8.60;82.00;;;;;;877861;160;27633;-79
2022/01/22 01:13:32;;;;;;;4.90;4.20;;;8.60;82.00;;;;;;878400;160;27499;-79
2022/01/22 01:34:43;;;;;;;4.20;3.80;;;8.60;81.80;;;;;;878619;160;27435;-79
2022/01/22 01:37:06;;;;;;;5.07;4.17;;;8.60;81.80;;;;;;878178;160;27551;-79
2022/01/22 01:39:35;;;;;;;4.13;3.53;;;8.60;81.90;;;;;;878415;160;27538;-78
2022/01/22 01:42:10;;;;;;;4.30;3.83;;;8.60;81.90;;;;;;877442;160;27578;-78
2022/01/22 01:44:29;;;;;;;5.47;3.60;;;8.60;81.90;;;;;;879016;159;27581;-79
2022/01/22 01:46:57;;;;;;;5.00;3.40;;;8.60;81.70;;;;;;878532;160;27372;-78
2022/01/22 01:49:22;;;;;;;4.23;3.43;;;8.60;82.50;;;;;;877881;160;27557;-79
2022/01/22 01:51:53;;;;;;;4.03;2.90;;;8.60;81.60;;;;;;878239;160;28563;-78
2022/01/22 01:54:45;;;;;;;3.87;3.10;;;8.60;81.60;;;;;;878093;160;27435;-79
2022/01/22 01:59:44;;;;;;;3.07;2.77;;;8.60;81.30;;;;;;885187;158;27461;-79
2022/01/22 02:02:11;;;;;;;4.30;2.90;;;8.70;81.20;;;;;;890645;158;27462;-78
2022/01/22 02:04:37;;;;;;;3.00;2.80;;;8.60;81.30;;;;;;890602;158;27404;-78
2022/01/22 02:07:04;;;;;;;4.43;2.80;;;8.60;81.20;;;;;;890993;158;27475;-79
2022/01/22 02:09:31;;;;;;;2.77;2.40;;;8.60;81.20;;;;;;890790;158;27627;-79
2022/01/22 02:25:22;;;;;;;3.70;2.10;;;8.60;81.00;;;;;;891141;158;27441;-79
2022/01/22 02:27:49;;;;;;;2.77;2.57;;;8.60;81.00;;;;;;890773;158;27456;-79
2022/01/22 02:30:21;;;;;;;3.77;2.20;;;8.60;81.10;;;;;;891232;158;27444;-79
2022/01/22 02:33:06;;;;;;;2.63;2.43;;;8.60;81.00;;;;;;889662;158;27539;-79
2022/01/22 02:35:28;;;;;;;2.87;2.57;;;8.60;81.00;;;;;;890349;158;27453;-80
2022/01/22 02:37:58;;;;;;;2.83;2.30;;;8.50;81.00;;;;;;890971;158;28044;-79
2022/01/22 02:40:27;;;;;;;5.23;2.57;;;8.60;81.00;;;;;;890920;158;27410;-79
2022/01/22 02:42:43;;;;;;;2.90;2.47;;;8.60;81.00;;;;;;888977;158;27562;-78
2022/01/22 02:45:11;;;;;;;4.13;2.67;;;8.60;81.00;;;;;;891010;158;27441;-79
2022/01/22 02:47:37;;;;;;;3.23;2.50;;;8.60;80.80;;;;;;891077;158;27429;-79
2022/01/22 02:50:03;;;;;;;5.00;2.63;;;8.50;80.80;;;;;;891694;158;27391;-78
2022/01/22 02:52:30;;;;;;;2.70;2.50;;;8.50;80.80;;;;;;888570;158;27482;-79
2022/01/22 02:54:56;;;;;;;2.70;2.50;;;8.50;80.80;;;;;;891066;158;27425;-79
2022/01/22 02:57:23;;;;;;;3.73;2.50;;;8.60;80.80;;;;;;891337;158;27440;-78
2022/01/22 02:59:49;;;;;;;2.93;2.50;;;8.60;80.80;;;;;;891156;158;27493;-79
2022/01/22 03:02:16;;;;;;;3.80;2.63;;;8.50;80.80;;;;;;890980;158;27820;-79
2022/01/22 03:04:43;;;;;;;8.10;2.80;;;8.50;80.90;;;;;;891239;158;27460;-79
2022/01/22 03:07:09;;;;;;;5.77;2.53;;;8.50;80.90;;;;;;890951;158;27410;-79
2022/01/22 03:09:47;;;;;;;4.73;2.83;;;8.50;80.80;;;;;;891691;158;27468;-79
2022/01/22 03:20:18;;;;;;;2.80;2.60;;;8.60;80.70;;;;;;890751;158;27951;-79
2022/01/22 03:22:42;;;;;;;5.37;2.93;;;8.50;80.60;;;;;;890454;158;27547;-80
2022/01/22 03:27:38;;;;;;;3.00;2.50;;;8.50;80.70;;;;;;892106;158;27442;-79
2022/01/22 03:30:05;;;;;;;4.13;2.50;;;8.60;80.70;;;;;;890651;158;27448;-79
2022/01/22 03:32:38;;;;;;;4.53;2.57;;;8.50;80.60;;;;;;891326;158;27483;-79
2022/01/22 03:35:10;;;;;;;4.43;2.37;;;8.50;80.60;;;;;;889902;158;27457;-78
2022/01/22 03:37:27;;;;;;;3.47;2.43;;;8.50;80.60;;;;;;889754;158;29021;-79
2022/01/22 03:39:54;;;;;;;2.57;2.23;;;8.50;80.60;;;;;;890759;158;27400;-79
2022/01/22 03:42:20;;;;;;;3.20;2.90;;;8.50;80.60;;;;;;891890;158;27399;-79
2022/01/22 03:44:47;;;;;;;3.07;2.10;;;8.50;80.50;;;;;;890453;158;27547;-79
2022/01/22 03:47:13;;;;;;;2.60;2.40;;;8.50;80.60;;;;;;890794;158;27551;-78
2022/01/22 03:49:40;;;;;;;2.67;2.47;;;8.60;80.70;;;;;;890899;158;27951;-79
2022/01/22 03:52:07;;;;;;;3.73;2.47;;;8.50;80.70;;;;;;891146;158;27374;-78
2022/01/22 03:54:33;;;;;;;2.50;2.30;;;8.50;80.50;;;;;;890724;158;27426;-79
2022/01/22 03:57:00;;;;;;;5.53;2.27;;;8.60;80.60;;;;;;890963;158;27512;-79
2022/01/22 03:59:28;;;;;;;3.27;2.17;;;8.60;80.50;;;;;;891088;158;27441;-79
2022/01/22 04:04:25;;;;;;;2.50;2.30;;;8.60;80.60;;;;;;882918;159;27391;-79
2022/01/22 04:09:33;;;;;;;4.47;2.20;;;8.50;80.50;;;;;;882801;159;27575;-79
2022/01/22 04:11:59;;;;;;;2.40;2.20;;;8.60;80.60;;;;;;882127;159;27483;-78
2022/01/22 04:14:27;;;;;;;3.07;2.40;;;8.60;80.70;;;;;;882647;159;28189;-79
2022/01/22 04:25:01;;;;;;;2.07;1.97;;;8.60;80.70;;;;;;882694;159;27923;-79
2022/01/22 04:27:28;;;;;;;4.07;2.10;;;8.60;80.60;;;;;;882933;159;27465;-79
2022/01/22 04:29:57;;;;;;;2.63;1.90;;;8.60;80.70;;;;;;882527;159;27946;-79
2022/01/22 04:32:30;;;;;;;2.13;1.97;;;8.60;80.60;;;;;;882037;159;27498;-78
2022/01/22 04:34:57;;;;;;;3.27;2.13;;;8.60;80.70;;;;;;882199;159;27420;-79
2022/01/22 04:37:24;;;;;;;1.90;1.80;;;8.60;80.60;;;;;;883040;159;27509;-79
2022/01/22 04:39:50;;;;;;;2.00;1.80;;;8.60;80.60;;;;;;882595;159;27434;-78
2022/01/22 04:42:17;;;;;;;2.40;2.20;;;8.60;80.70;;;;;;882284;159;28181;-79
2022/01/22 04:44:58;;;;;;;3.03;1.90;;;8.60;80.70;;;;;;882122;159;27435;-79
2022/01/22 04:47:27;;;;;;;5.30;2.20;;;8.60;80.70;;;;;;880629;159;28069;-79
2022/01/22 04:55:00;;;;;;;2.27;2.07;;;8.60;80.70;;;;;;883300;159;29035;-79
2022/01/22 04:57:25;;;;;;;2.27;2.10;;;8.60;80.90;;;;;;882273;159;27372;-78
2022/01/22 04:59:52;;;;;;;2.20;2.00;;;8.60;80.70;;;;;;882763;159;27946;-79
2022/01/22 05:02:18;;;;;;;2.57;2.17;;;8.60;80.70;;;;;;876604;159;27544;-78
2022/01/22 05:04:45;;;;;;;2.53;1.93;;;8.60;81.40;;;;;;874850;161;27892;-79
2022/01/22 05:07:11;;;;;;;2.27;2.03;;;8.60;80.70;;;;;;874787;161;27360;-79
2022/01/22 05:09:38;;;;;;;2.00;1.80;;;8.60;80.70;;;;;;874659;161;27407;-79
2022/01/22 05:12:08;;;;;;;2.03;1.93;;;8.60;80.70;;;;;;875560;161;27544;-79
2022/01/22 05:14:34;;;;;;;1.87;1.77;;;8.60;80.90;;;;;;874682;161;27467;-79
2022/01/22 05:17:03;;;;;;;2.10;2.00;;;8.60;80.80;;;;;;875339;161;27474;-78
2022/01/22 05:22:03;;;;;;;2.27;2.07;;;8.60;80.90;;;;;;874723;161;28258;-79
2022/01/22 05:24:27;;;;;;;2.17;1.97;;;8.60;80.90;;;;;;874168;161;27392;-79
2022/01/22 05:27:16;;;;;;;2.70;2.00;;;8.60;81.00;;;;;;874023;161;27422;-79
2022/01/22 05:37:00;;;;;;;3.57;1.83;;;8.60;81.10;;;;;;874252;161;27391;-79
2022/01/22 05:39:24;;;;;;;2.87;2.10;;;8.60;81.00;;;;;;875479;161;27756;-79
2022/01/22 05:41:50;;;;;;;1.57;1.50;;;8.60;81.00;;;;;;876247;157;27410;-79
2022/01/22 05:44:16;;;;;;;2.93;2.23;;;8.60;81.00;;;;;;877775;157;27379;-79
2022/01/22 05:46:43;;;;;;;1.80;1.70;;;8.60;81.00;;;;;;877849;161;27359;-79
2022/01/22 05:49:09;;;;;;;2.03;1.83;;;8.70;81.00;;;;;;876889;157;27478;-79
2022/01/22 05:51:39;;;;;;;3.47;1.80;;;8.60;81.00;;;;;;875217;161;27925;-79
2022/01/22 05:59:36;;;;;;;1.90;1.77;;;8.60;81.00;;;;;;875356;161;28247;-79
2022/01/22 06:02:02;;;;;;;2.80;1.80;;;8.60;81.10;;;;;;875506;160;28184;-79
2022/01/22 06:04:28;;;;;;;1.90;1.80;;;8.60;81.20;;;;;;877950;160;27520;-79
2022/01/22 06:06:55;;;;;;;1.93;1.83;;;8.60;81.20;;;;;;878069;160;27930;-79
2022/01/22 06:09:22;;;;;;;2.23;2.03;;;8.60;81.30;;;;;;878868;160;27553;-79
2022/01/22 06:11:58;;;;;;;2.10;1.90;;;8.70;81.30;;;;;;878275;160;27540;-79
2022/01/22 06:14:20;;;;;;;1.90;1.80;;;8.70;81.30;;;;;;877026;160;27413;-79
2022/01/22 06:16:47;;;;;;;2.00;1.90;;;8.70;81.20;;;;;;878152;160;27444;-78
2022/01/22 06:19:14;;;;;;;2.23;2.03;;;8.70;81.20;;;;;;877462;160;27445;-79
2022/01/22 06:21:40;;;;;;;2.07;1.60;;;8.70;81.20;;;;;;877658;160;27455;-79
2022/01/22 06:24:07;;;;;;;1.80;1.70;;;8.70;81.20;;;;;;878042;160;29631;-78
2022/01/22 06:26:35;;;;;;;1.80;1.70;;;8.70;81.30;;;;;;878322;160;27541;-78
2022/01/22 06:29:01;;;;;;;2.10;2.00;;;8.70;81.20;;;;;;877695;160;27407;-78
2022/01/22 06:31:26;;;;;;;2.33;1.77;;;8.70;81.20;;;;;;877559;160;27434;-78
2022/01/22 06:33:53;;;;;;;3.63;2.00;;;8.70;81.20;;;;;;877897;160;27453;-78
2022/01/22 06:36:20;;;;;;;3.83;1.90;;;8.70;81.20;;;;;;877422;160;27880;-78
2022/01/22 06:38:48;;;;;;;2.00;1.90;;;8.70;81.60;;;;;;878462;160;27413;-78
2022/01/22 06:43:58;;;;;;;2.67;1.80;;;8.70;81.20;;;;;;877935;160;27465;-78
2022/01/22 06:46:24;;;;;;;2.20;1.90;;;8.80;81.20;;;;;;878044;160;27498;-78
2022/01/22 06:48:51;;;;;;;2.70;1.77;;;8.70;81.20;;;;;;877972;160;27450;-78
2022/01/22 06:51:22;;;;;;;2.10;1.90;;;8.70;81.20;;;;;;877889;160;27982;-79
2022/01/22 06:53:44;;;;;;;2.03;1.93;;;8.70;81.30;;;;;;877827;160;27489;-79
2022/01/22 06:56:18;;;;;;;2.37;2.20;;;8.70;81.40;;;;;;878159;160;27509;-78
2022/01/22 06:58:37;;;;;;;2.10;2.00;;;8.70;81.40;;;;;;877327;160;27422;-78
2022/01/22 07:01:04;;;;;;;2.07;1.97;;;8.80;81.50;;;;;;878378;160;27774;-78
2022/01/22 07:03:30;;;;;;;2.00;1.80;;;8.70;81.50;;;;;;875940;160;27561;-78
2022/01/22 07:05:57;;;;;;;2.07;1.97;;;8.80;81.60;;;;;;875168;161;27516;-78
2022/01/22 07:08:24;;;;;;;2.33;2.20;;;8.80;81.60;;;;;;875339;161;27888;-78
2022/01/22 07:10:50;;;;;;;2.03;1.93;;;8.80;81.60;;;;;;875081;161;28223;-78
2022/01/22 07:13:17;;;;;;;2.40;2.20;;;8.80;81.60;;;;;;874245;161;27398;-78
2022/01/22 07:15:43;;;;;;;2.70;2.43;;;8.80;81.60;;;;;;874739;161;27580;-78
2022/01/22 07:18:13;;;;;;;2.50;2.37;;;8.80;81.60;;;;;;875314;161;27461;-78
2022/01/22 07:20:39;;;;;;;2.17;2.07;;;8.80;81.60;;;;;;875090;161;27479;-78
2022/01/22 07:23:14;;;;;;;2.00;1.90;;;8.80;81.60;;;;;;875527;161;27862;-78
2022/01/22 07:25:30;;;;;;;2.40;2.20;;;8.80;81.70;;;;;;873598;161;27468;-78
2022/01/22 07:27:56;;;;;;;2.83;2.30;;;8.80;81.70;;;;;;874414;161;27451;-78
2022/01/22 07:30:23;;;;;;;2.87;2.57;;;8.80;81.80;;;;;;874595;161;27570;-78
2022/01/22 07:32:49;;;;;;;3.43;3.13;;;8.80;81.90;;;;;;875491;161;27414;-78
2022/01/22 07:35:17;;;;;;;2.63;2.43;;;8.80;81.90;;;;;;875490;161;27406;-78
2022/01/22 07:37:43;;;;;;;2.63;2.40;;;8.80;81.90;;;;;;875146;161;27433;-78
2022/01/22 07:40:09;;;;;;;3.00;2.70;;;8.90;81.90;;;;;;875242;161;27415;-78
2022/01/22 07:42:37;;;;;;;3.63;2.70;;;8.90;82.00;;;;;;875660;161;27942;-78
2022/01/22 07:45:02;;;;;;;2.93;2.73;;;8.90;82.10;;;;;;875847;161;27447;-80
2022/01/22 07:47:29;;;;;;;2.57;2.40;;;8.90;82.00;;;;;;875138;161;27456;-78
2022/01/22 07:49:56;;;;;;;3.00;2.80;;;8.90;82.00;;;;;;875400;161;27410;-78
2022/01/22 07:52:22;;;;;;;3.10;2.90;;;8.90;82.00;;;;;;874379;161;27431;-78
2022/01/22 07:54:52;;;;;;;3.10;2.80;;;8.90;82.00;;;;;;875316;161;27439;-78
2022/01/22 07:57:18;;;;;;;2.90;2.70;;;8.90;82.10;;;;;;875911;161;27558;-78
2022/01/22 07:59:45;;;;;;;3.43;3.13;;;9.00;82.10;;;;;;874348;161;27605;-78
2022/01/22 08:02:13;;;;;;;3.30;3.00;;;9.00;82.20;;;;;;875319;161;27509;-78
2022/01/22 08:04:38;;;;;;;2.90;2.70;;;9.00;82.20;;;;;;878354;160;27544;-79
2022/01/22 08:07:05;;;;;;;2.80;2.60;;;9.00;82.20;;;;;;878732;160;27645;-78
2022/01/22 08:09:31;;;;;;;3.20;2.90;;;9.00;82.20;;;;;;878296;160;27630;-78
2022/01/22 08:11:59;;;;;;;2.90;2.70;;;9.00;82.20;;;;;;878768;160;28042;-78
2022/01/22 08:14:24;;;;;;;3.27;3.00;;;9.10;82.30;;;;;;877741;160;27563;-78
2022/01/22 08:16:51;;;;;;;2.73;2.53;;;9.10;82.30;;;;;;878585;160;27505;-78
2022/01/22 08:19:17;;;;;;;3.07;2.80;;;9.10;82.30;;;;;;878969;160;27448;-78
2022/01/22 08:21:47;;;;;;;2.97;2.77;;;9.10;82.10;;;;;;878058;160;27534;-78
2022/01/22 08:24:14;;;;;;;3.40;3.10;;;9.10;82.10;;;;;;878186;159;27544;-78
2022/01/22 08:26:46;;;;;;;3.00;2.80;;;9.20;82.20;;;;;;878606;160;27504;-79
2022/01/22 08:29:07;;;;;;;3.10;2.90;;;9.20;82.30;;;;;;878010;160;27611;-79
2022/01/22 08:36:44;;;;;;;3.00;2.80;;;9.30;82.50;;;;;;877759;160;27566;-79
2022/01/22 08:39:11;;;;;;;3.33;3.13;;;9.30;82.40;;;;;;877607;160;27901;-79
2022/01/22 08:41:38;;;;;;;3.03;2.83;;;9.30;82.50;;;;;;877181;160;27439;-79
2022/01/22 08:44:04;;;;;;;3.20;3.00;;;9.30;82.40;;;;;;877221;160;27419;-79
2022/01/22 08:46:31;;;;;;;3.63;3.33;;;9.30;82.30;;;;;;877277;160;27352;-78
2022/01/22 08:48:57;;;;;;;2.90;2.70;;;9.30;82.30;;;;;;878076;160;27520;-78
2022/01/22 08:51:24;;;;;;;3.27;3.07;;;9.40;82.30;;;;;;877115;160;27600;-78
2022/01/22 08:53:55;;;;;;;3.10;2.90;;;9.40;82.40;;;;;;877996;160;27416;-79
2022/01/22 08:56:20;;;;;;;3.50;3.20;;;9.40;82.30;;;;;;878155;160;27646;-78
2022/01/22 08:58:47;;;;;;;3.23;3.00;;;9.40;82.30;;;;;;877357;160;27868;-79
2022/01/22 09:01:13;;;;;;;2.90;2.70;;;9.50;83.20;;;;;;877579;160;27440;-78
2022/01/22 09:03:40;;;;;;;3.20;3.00;;;9.40;82.30;;;;;;877246;160;27503;-78
2022/01/22 09:06:07;;;;;;;3.30;3.10;;;9.50;82.50;;;;;;877493;160;27550;-78
2022/01/22 09:08:33;;;;;;;3.20;3.00;;;9.50;82.50;;;;;;877184;160;27447;-79
2022/01/22 09:11:00;;;;;;;3.03;2.83;;;9.50;82.50;;;;;;877994;159;28040;-79
2022/01/22 09:13:26;;;;;;;3.67;3.17;;;9.50;82.30;;;;;;878276;160;27480;-78
2022/01/22 09:15:53;;;;;;;3.03;2.83;;;9.60;82.30;;;;;;877468;160;27524;-78
2022/01/22 09:18:20;;;;;;;3.20;2.90;;;9.60;82.30;;;;;;877198;160;27554;-78
2022/01/22 09:23:15;;;;;;;3.20;2.90;;;9.60;82.20;;;;;;845404;166;27512;-79
2022/01/22 09:25:42;;;;;;;3.13;2.93;;;9.60;82.20;;;;;;840670;167;27547;-79
2022/01/22 09:28:12;;;;;;;4.73;4.33;;;9.70;82.40;;;;;;863053;163;27448;-79
2022/01/22 09:30:38;;;;;;;3.73;3.43;;;9.70;82.30;;;;;;863773;163;27462;-78
2022/01/22 09:33:04;;;;;;;4.33;4.03;;;9.70;82.30;;;;;;864168;163;27443;-78
2022/01/22 09:35:31;;;;;;;3.30;3.10;;;9.70;82.30;;;;;;863442;163;27437;-78
2022/01/22 09:37:57;;;;;;;3.37;3.17;;;9.80;82.30;;;;;;866371;162;27531;-78
2022/01/22 09:40:27;;;;;;;3.17;2.87;;;9.80;82.50;;;;;;866712;162;27527;-79
2022/01/22 09:42:53;;;;;;;3.27;3.07;;;9.90;82.50;;;;;;866071;161;28546;-79
2022/01/22 09:45:21;;;;;;;3.73;3.43;;;9.90;82.40;;;;;;866541;162;27445;-79
2022/01/22 09:47:47;;;;;;;3.60;3.30;;;9.90;83.20;;;;;;866137;162;27506;-78
2022/01/22 09:50:13;;;;;;;3.50;3.30;;;10.00;82.50;;;;;;866075;162;27405;-78
2022/01/22 09:52:40;;;;;;;3.57;3.37;;;10.00;82.50;;;;;;866392;162;27633;-78
2022/01/22 09:55:06;;;;;;;3.30;3.10;;;10.10;82.50;;;;;;867314;162;27540;-78
2022/01/22 09:57:37;;;;;;;3.57;3.27;;;10.10;82.50;;;;;;866318;162;27460;-78
2022/01/22 10:00:00;;;;;;;3.87;3.57;;;10.20;82.40;;;;;;866562;162;27520;-78
2022/01/22 10:02:26;;;;;;;3.67;3.37;;;10.20;82.40;;;;;;865951;162;28005;-78
2022/01/22 10:04:53;;;;;;;4.07;3.77;;;10.30;82.40;;;;;;861301;163;27513;-78
2022/01/22 10:07:21;;;;;;;4.00;3.70;;;10.30;82.30;;;;;;874237;161;27551;-78
2022/01/22 10:09:58;;;;;;;3.83;3.53;;;10.40;82.30;;;;;;873518;161;28564;-78
2022/01/22 10:12:26;;;;;;;3.67;3.47;;;10.50;82.20;;;;;;873642;161;27400;-79
2022/01/22 10:15:06;;;;;;;3.67;3.37;;;10.60;82.10;;;;;;872780;161;27432;-78
2022/01/22 10:17:51;;;;;;;3.67;3.40;;;10.60;81.90;;;;;;873783;161;27545;-79
2022/01/22 10:20:24;;;;;;;3.80;3.50;;;10.60;81.70;;;;;;873373;161;27539;-78
2022/01/22 10:22:54;;;;;;;4.27;3.97;;;10.70;81.70;;;;;;874204;161;28466;-79
2022/01/22 10:25:20;;;;;;;3.47;3.27;;;10.70;81.70;;;;;;873319;161;27471;-79
2022/01/22 10:27:51;;;;;;;4.10;3.80;;;10.70;81.60;;;;;;872806;161;28088;-79
2022/01/22 10:30:15;;;;;;;4.10;3.73;;;10.80;81.50;;;;;;873477;161;28037;-78
2022/01/22 10:35:15;;;;;;;4.03;3.73;;;10.80;81.30;;;;;;873841;161;27663;-79
2022/01/22 10:37:41;;;;;;;3.93;3.63;;;10.90;81.20;;;;;;873288;161;27395;-79
2022/01/22 10:40:29;;;;;;;3.97;3.67;;;10.90;81.10;;;;;;873756;161;27506;-78
2022/01/22 10:43:20;;;;;;;4.77;3.87;;;10.90;81.10;;;;;;873760;161;27414;-79
2022/01/22 10:46:14;;;;;;;4.23;3.93;;;11.00;81.10;;;;;;873643;161;27430;-79
2022/01/22 10:48:38;;;;;;;4.63;4.23;;;11.00;81.00;;;;;;873259;161;27444;-79
2022/01/22 10:51:06;;;;;;;4.13;3.73;;;11.00;80.70;;;;;;873386;161;27838;-79
2022/01/22 10:53:43;;;;;;;5.33;4.83;;;11.10;80.80;;;;;;873585;161;27439;-79
2022/01/22 10:56:09;;;;;;;7.43;6.73;;;11.10;80.50;;;;;;873716;161;27471;-79
2022/01/22 10:58:35;;;;;;;6.07;5.43;;;11.10;80.30;;;;;;872817;161;27423;-78
2022/01/22 11:01:05;;;;;;;4.90;4.50;;;11.10;80.30;;;;;;873207;161;27428;-79
2022/01/22 11:03:31;;;;;;;4.47;4.13;;;11.10;80.20;;;;;;873659;161;27455;-79
2022/01/22 11:05:59;;;;;;;5.20;4.80;;;11.10;80.00;;;;;;863548;161;27502;-79
2022/01/22 11:08:25;;;;;;;4.60;4.23;;;11.10;79.90;;;;;;859102;163;27438;-79
2022/01/22 11:10:51;;;;;;;4.43;4.13;;;11.10;79.90;;;;;;859606;163;27401;-79
2022/01/22 11:13:19;;;;;;;4.10;3.80;;;11.10;79.80;;;;;;858784;163;27516;-78
2022/01/22 11:15:44;;;;;;;4.27;3.97;;;11.10;79.70;;;;;;859462;162;27472;-79
2022/01/22 11:18:11;;;;;;;4.40;4.10;;;11.10;79.70;;;;;;859474;163;27469;-79
2022/01/22 11:20:38;;;;;;;5.17;4.77;;;11.10;79.70;;;;;;878025;160;27466;-79
2022/01/22 11:23:04;;;;;;;4.63;4.23;;;11.10;79.00;;;;;;878930;160;27491;-79
2022/01/22 11:25:31;;;;;;;5.27;4.87;;;11.10;79.80;;;;;;879059;159;27592;-78
2022/01/22 11:27:57;;;;;;;5.57;5.07;;;11.10;79.70;;;;;;878012;160;27416;-79
2022/01/22 11:30:25;;;;;;;5.87;5.27;;;11.10;79.50;;;;;;878498;160;27611;-79
2022/01/22 11:32:52;;;;;;;5.87;5.30;;;11.10;79.50;;;;;;878132;160;27436;-79
2022/01/22 11:35:20;;;;;;;6.50;5.90;;;11.10;79.40;;;;;;878137;160;27536;-79
2022/01/22 11:37:47;;;;;;;6.17;5.57;;;11.00;79.20;;;;;;878087;160;27898;-79
2022/01/22 11:40:22;;;;;;;6.17;5.63;;;11.00;79.10;;;;;;878068;160;27392;-79
2022/01/22 11:43:04;;;;;;;5.93;5.43;;;11.00;79.20;;;;;;879122;160;27954;-79
2022/01/22 11:45:24;;;;;;;5.80;5.20;;;11.00;79.10;;;;;;877178;160;27548;-79
2022/01/22 11:48:09;;;;;;;5.13;4.73;;;10.90;79.10;;;;;;877707;160;27519;-79
2022/01/22 11:50:35;;;;;;;5.13;4.63;;;10.90;79.20;;;;;;878077;160;27498;-79
2022/01/22 11:53:24;;;;;;;5.53;5.03;;;10.90;79.20;;;;;;878567;160;27497;-79
2022/01/22 11:56:22;;;;;;;4.70;4.30;;;10.80;79.30;;;;;;879628;159;27428;-79
2022/01/22 11:58:56;;;;;;;5.33;4.80;;;10.80;79.30;;;;;;879950;158;27358;-79
2022/01/22 12:04:16;;;;;;;4.67;4.27;;;10.80;79.30;;;;;;880178;160;27574;-79
2022/01/22 12:07:03;;;;;;;5.67;5.17;;;10.80;79.40;;;;;;858282;163;27508;-78
2022/01/22 12:09:32;;;;;;;5.57;5.07;;;10.70;79.30;;;;;;855037;164;27489;-79
2022/01/22 12:14:53;;;;;;;4.47;4.10;;;10.70;79.60;;;;;;859339;162;27912;-79
2022/01/22 12:17:26;;;;;;;4.80;4.30;;;10.70;79.70;;;;;;858602;163;27523;-79
2022/01/22 12:22:30;;;;;;;5.07;4.57;;;10.70;79.50;;;;;;859653;163;27531;-79
2022/01/22 12:24:56;;;;;;;4.83;4.43;;;10.80;79.60;;;;;;866137;162;27453;-79
2022/01/22 12:27:47;;;;;;;4.63;4.23;;;10.70;79.50;;;;;;866354;162;27464;-79
2022/01/22 12:30:13;;;;;;;5.07;4.63;;;10.80;79.40;;;;;;852993;165;27508;-80
2022/01/22 12:32:46;;;;;;;4.97;4.57;;;10.80;79.40;;;;;;853242;165;27577;-80
2022/01/22 12:35:14;;;;;;;5.00;4.60;;;10.70;79.40;;;;;;857612;162;27614;-80
2022/01/22 12:37:45;;;;;;;4.90;4.50;;;10.80;79.40;;;;;;858218;163;27563;-80
2022/01/22 12:40:08;;;;;;;4.90;4.50;;;10.80;79.40;;;;;;859158;163;27404;-80
2022/01/22 12:42:47;;;;;;;4.87;4.47;;;10.80;79.40;;;;;;858815;163;27520;-80
2022/01/22 12:45:10;;;;;;;5.07;4.67;;;10.80;79.50;;;;;;859420;163;27499;-80
2022/01/22 12:47:38;;;;;;;4.93;4.40;;;10.80;79.40;;;;;;859509;163;27512;-80
2022/01/22 12:50:07;;;;;;;4.63;4.23;;;10.80;79.20;;;;;;858588;163;27655;-80
2022/01/22 12:52:37;;;;;;;4.93;4.53;;;10.80;79.20;;;;;;858421;163;27453;-80
2022/01/22 12:55:04;;;;;;;4.37;4.07;;;10.80;79.00;;;;;;858882;163;27458;-80
2022/01/22 12:57:30;;;;;;;4.77;4.37;;;10.80;78.90;;;;;;857816;163;27561;-80
2022/01/22 13:00:12;;;;;;;4.50;4.10;;;10.80;78.90;;;;;;859174;163;27530;-80
2022/01/22 13:02:37;;;;;;;4.70;4.20;;;10.80;78.90;;;;;;859857;163;27480;-79
2022/01/22 13:05:03;;;;;;;4.43;4.03;;;10.80;78.90;;;;;;859421;163;27484;-79
2022/01/22 13:07:39;;;;;;;4.57;4.17;;;10.80;79.00;;;;;;862611;163;27942;-79
2022/01/22 13:10:07;;;;;;;4.97;4.10;;;10.80;78.90;;;;;;863735;163;27441;-79
2022/01/22 13:12:32;;;;;;;5.13;4.63;;;10.80;78.90;;;;;;863642;163;27570;-79
2022/01/22 13:14:58;;;;;;;4.77;4.37;;;10.80;78.90;;;;;;882064;159;27491;-79
2022/01/22 13:17:29;;;;;;;4.70;4.30;;;10.80;78.80;;;;;;882450;159;27482;-79
2022/01/22 13:19:54;;;;;;;4.30;3.90;;;10.80;78.90;;;;;;882634;159;27983;-79
2022/01/22 13:22:21;;;;;;;4.60;4.20;;;10.80;78.80;;;;;;882461;159;27461;-78
2022/01/22 13:24:48;;;;;;;4.67;4.30;;;10.80;78.80;;;;;;882334;159;27455;-78
2022/01/22 13:27:17;;;;;;;4.20;3.90;;;10.80;78.90;;;;;;882974;159;27455;-79
2022/01/22 13:29:50;;;;;;;4.43;4.10;;;10.80;78.90;;;;;;882755;157;27502;-79
2022/01/22 13:32:18;;;;;;;4.27;3.87;;;10.80;78.90;;;;;;881512;159;27427;-79
2022/01/22 13:35:35;;;;;;;4.43;4.03;;;10.80;78.80;;;;;;882306;159;27411;-79
2022/01/22 13:48:55;;;;;;;4.83;4.33;;;10.80;78.90;;;;;;882559;159;27411;-80
2022/01/22 13:51:22;;;;;;;4.63;4.20;;;10.80;79.00;;;;;;882470;159;27569;-80
2022/01/22 13:53:49;;;;;;;5.07;4.57;;;10.80;79.00;;;;;;883385;159;27613;-80
2022/01/22 13:56:16;;;;;;;4.27;3.87;;;10.80;79.00;;;;;;882429;159;27374;-80
2022/01/22 13:58:42;;;;;;;4.57;4.13;;;10.80;78.90;;;;;;881940;159;27424;-79
2022/01/22 14:01:31;;;;;;;5.93;4.60;;;10.80;78.80;;;;;;882728;159;27420;-79
2022/01/22 14:04:05;;;;;;;4.37;3.97;;;10.80;78.70;;;;;;881121;159;27445;-79
2022/01/22 14:06:31;;;;;;;5.67;4.83;;;10.90;79.40;;;;;;881575;159;27443;-79
2022/01/22 14:08:58;;;;;;;8.10;7.30;;;10.90;78.50;;;;;;878447;160;28366;-79
2022/01/22 14:11:24;;;;;;;7.43;6.73;;;10.90;78.90;;;;;;878797;159;27486;-79
2022/01/22 14:14:03;;;;;;;7.53;6.83;;;10.90;78.30;;;;;;878579;160;27444;-79
2022/01/22 14:16:33;;;;;;;5.50;5.00;;;10.90;78.30;;;;;;878397;160;27448;-79
2022/01/22 14:18:59;;;;;;;5.57;4.67;;;10.90;78.50;;;;;;878392;160;27551;-79
2022/01/22 14:21:26;;;;;;;5.07;4.67;;;10.90;78.20;;;;;;878784;160;27984;-79
2022/01/22 14:23:55;;;;;;;5.63;5.10;;;10.90;78.20;;;;;;878800;160;27496;-79
2022/01/22 14:26:33;;;;;;;7.13;6.43;;;10.90;78.20;;;;;;878760;160;28031;-79
2022/01/22 14:29:07;;;;;;;6.23;5.63;;;10.90;78.30;;;;;;878873;160;27426;-79
2022/01/22 14:31:29;;;;;;;5.47;4.63;;;10.90;78.20;;;;;;877486;160;27483;-79
2022/01/22 14:34:10;;;;;;;5.00;4.60;;;10.90;78.20;;;;;;878368;160;27451;-79
2022/01/22 14:36:40;;;;;;;6.20;4.90;;;10.90;78.20;;;;;;878473;159;27478;-80
2022/01/22 14:39:17;;;;;;;4.97;4.47;;;10.90;78.30;;;;;;877928;159;27443;-79
2022/01/22 14:44:29;;;;;;;6.17;5.60;;;10.90;78.20;;;;;;877870;160;27462;-80
2022/01/22 14:46:53;;;;;;;4.30;4.00;;;11.00;78.20;;;;;;878927;160;27560;-79
2022/01/22 14:49:23;;;;;;;4.60;4.20;;;11.00;78.20;;;;;;877749;160;27492;-79
2022/01/22 14:51:49;;;;;;;5.50;4.23;;;10.90;78.10;;;;;;878218;159;27602;-80